This is the latest recevied weather packets stored in our database for station/object SALIDA. If no packets are shown the sender has not sent any weather packets the latest 10 day(s).
| Time | Temp. | Humidity | Pressure | Rain* | Wind** | Luminosity | Snow |
|---|---|---|---|---|---|---|---|
| 1777694494 | 7.78° C | 54% | 1018.1 hPa | 0 mm | - | - | - |
| 1777693593 | 7.78° C | 53% | 1018.1 hPa | 0 mm | - | - | - |
| 1777692693 | 7.78° C | 52% | 1017.9 hPa | 0 mm | - | - | - |
| 1777691793 | 8.33° C | 52% | 1017.6 hPa | 0 mm | - | - | - |
| 1777690893 | 8.33° C | 49% | 1017 hPa | 0 mm | - | - | - |
| 1777689993 | 8.33° C | 48% | 1016.7 hPa | 0 mm | - | - | - |
| 1777689093 | 8.89° C | 44% | 1016.2 hPa | 0 mm | - | - | - |
| 1777673794 | 11.67° C | 36% | 1014.4 hPa | 0 mm | - | - | - |
| 1777672894 | 12.78° C | 34% | 1014.7 hPa | 0 mm | - | - | - |
| 1777671994 | 12.22° C | 36% | 1014.9 hPa | 0 mm | - | - | - |
| 1777671094 | 12.22° C | 33% | 1015.3 hPa | 0 mm | - | - | - |
| 1777670194 | 11.67° C | 36% | 1015.3 hPa | 0 mm | - | - | - |
| 1777669294 | 10.56° C | 38% | 1015.5 hPa | 0 mm | - | - | - |
| 1777668394 | 10° C | 43% | 1015.6 hPa | 0 mm | - | - | - |
| 1777667494 | 10° C | 44% | 1015.7 hPa | 0 mm | - | - | - |
| 1777666594 | 11.11° C | 40% | 1016 hPa | 0 mm | - | - | - |
| 1777665694 | 11.11° C | 43% | 1016.2 hPa | 0 mm | - | - | - |
| 1777664794 | 10.56° C | 45% | 1016.7 hPa | 0 mm | - | - | - |
| 1777663894 | 8.89° C | 45% | 1016.9 hPa | 0 mm | - | - | - |
| 1777662994 | 8.33° C | 47% | 1016.9 hPa | 0 mm | - | - | - |
| 1777662094 | 8.89° C | 48% | 1017.2 hPa | 0 mm | - | - | - |
| 1777660294 | 9.44° C | 45% | 1017.4 hPa | 0 mm | - | - | - |
| 1777659394 | 8.33° C | 45% | 1017.6 hPa | 0 mm | - | - | - |
| 1777658495 | 8.33° C | 53% | 1017.7 hPa | 0 mm | - | - | - |
| 1777656694 | 6.11° C | 59% | 1018 hPa | 0 mm | - | - | - |
* Rain latest hour (hover to see other rain measurements)
** Current wind speed in m/s (hover to see current wind gust speed)